createdAt,value
2022-10-05T00:02:25.570Z,29.67
2022-10-05T00:05:29.669Z,29.81
2022-10-05T00:08:26.286Z,29.73
2022-10-05T00:11:21.157Z,29.81
2022-10-05T00:14:23.170Z,29.95
2022-10-05T00:17:21.831Z,30.12
2022-10-05T00:20:23.828Z,30.22
2022-10-05T00:23:23.032Z,30.34
2022-10-05T00:26:24.692Z,30.42
2022-10-05T00:29:24.181Z,30.42
2022-10-05T00:32:14.769Z,30.43
2022-10-05T00:35:04.617Z,30.52
2022-10-05T00:37:56.647Z,30.66
2022-10-05T00:40:51.632Z,30.71
2022-10-05T00:44:04.714Z,30.78
2022-10-05T00:47:22.434Z,30.75
2022-10-05T00:50:39.089Z,30.73
2022-10-05T00:53:49.520Z,30.72
2022-10-05T00:57:08.173Z,30.77
2022-10-05T01:00:18.459Z,30.68
2022-10-05T01:03:42.414Z,30.73
2022-10-05T01:06:39.835Z,30.85
2022-10-05T01:09:35.989Z,30.92
2022-10-05T01:13:16.788Z,31.03
2022-10-05T01:16:17.139Z,30.95
2022-10-05T01:19:19.821Z,31.03
2022-10-05T01:22:49.194Z,31.12
2022-10-05T01:26:14.127Z,31.21
2022-10-05T01:29:41.110Z,31.30
2022-10-05T01:32:44.647Z,31.39
2022-10-05T01:35:55.465Z,31.41
2022-10-05T01:39:06.734Z,31.57
2022-10-05T01:43:03.888Z,31.72
2022-10-05T01:46:20.714Z,31.73
2022-10-05T01:49:35.400Z,31.76
2022-10-05T01:52:51.383Z,31.86
2022-10-05T01:56:06.012Z,31.91
2022-10-05T01:59:20.614Z,31.89
2022-10-05T02:02:14.537Z,31.78
2022-10-05T02:05:17.525Z,31.74
2022-10-05T02:08:40.772Z,31.64
2022-10-05T02:11:30.512Z,31.63
2022-10-05T02:14:24.946Z,31.58
2022-10-05T02:17:30.612Z,31.59
2022-10-05T02:20:27.313Z,31.55
2022-10-05T02:23:22.852Z,31.62
2022-10-05T02:26:14.027Z,31.69
2022-10-05T02:29:11.075Z,31.86
2022-10-05T02:32:15.873Z,31.94
2022-10-05T02:35:16.286Z,32.07
2022-10-05T02:38:20.335Z,32.06
2022-10-05T02:41:33.321Z,32.19
2022-10-05T02:44:32.948Z,32.25
2022-10-05T02:47:31.478Z,32.31
2022-10-05T02:50:47.194Z,32.48
2022-10-05T02:53:40.338Z,32.52
2022-10-05T02:56:45.930Z,32.61
2022-10-05T02:59:49.666Z,32.61
2022-10-05T03:02:59.306Z,32.58
2022-10-05T03:06:07.487Z,32.60
2022-10-05T03:09:05.235Z,32.58
2022-10-05T03:12:16.585Z,32.59
2022-10-05T03:15:47.497Z,32.62
2022-10-05T03:19:07.926Z,32.61
2022-10-05T03:22:06.806Z,32.57
2022-10-05T03:25:40.313Z,32.58
2022-10-05T03:29:00.055Z,32.57
2022-10-05T03:32:07.812Z,32.57
2022-10-05T03:35:16.578Z,32.65
2022-10-05T03:38:15.985Z,32.59
2022-10-05T03:41:14.821Z,32.64
2022-10-05T03:44:34.079Z,32.71
2022-10-05T03:47:38.156Z,32.77
2022-10-05T03:51:04.344Z,32.89
2022-10-05T03:54:04.693Z,32.86
2022-10-05T03:57:04.179Z,32.91
2022-10-05T04:00:07.987Z,33.03
2022-10-05T04:03:33.565Z,33.21
2022-10-05T04:06:29.596Z,33.20
2022-10-05T04:09:28.580Z,33.47
2022-10-05T04:12:26.156Z,33.43
2022-10-05T04:15:53.807Z,33.44
2022-10-05T04:19:07.554Z,33.40
2022-10-05T04:22:10.695Z,33.35
2022-10-05T04:25:22.981Z,33.24
2022-10-05T04:28:44.399Z,33.26
2022-10-05T04:32:12.483Z,33.17
2022-10-05T04:35:19.881Z,33.13
2022-10-05T04:38:38.182Z,33.00
2022-10-05T04:42:01.894Z,32.95
2022-10-05T04:44:59.454Z,32.87
2022-10-05T04:47:59.383Z,32.83
2022-10-05T04:51:07.875Z,32.83
2022-10-05T04:54:17.561Z,32.82
2022-10-05T04:57:29.115Z,32.81
2022-10-05T05:00:26.923Z,32.76
2022-10-05T05:03:47.458Z,32.75
2022-10-05T05:06:40.084Z,32.71
2022-10-05T05:09:50.566Z,32.65
2022-10-05T05:13:01.283Z,32.65
2022-10-05T05:16:14.736Z,32.58
2022-10-05T05:19:46.167Z,32.56
2022-10-05T05:22:48.258Z,32.47
2022-10-05T05:26:06.470Z,32.45
2022-10-05T05:29:33.238Z,32.48
2022-10-05T05:32:48.303Z,32.43
2022-10-05T05:35:57.474Z,32.46
2022-10-05T05:39:25.204Z,32.48
2022-10-05T05:42:55.259Z,32.58
2022-10-05T05:46:07.792Z,32.57
2022-10-05T05:48:59.773Z,32.61
2022-10-05T05:52:11.534Z,32.67
2022-10-05T05:55:08.306Z,32.65
2022-10-05T05:58:24.069Z,32.76
2022-10-05T06:01:34.237Z,32.75
2022-10-05T06:04:42.946Z,32.75
2022-10-05T06:07:34.211Z,32.71
2022-10-05T06:10:28.587Z,32.66
2022-10-05T06:13:42.774Z,32.64
2022-10-05T06:16:52.452Z,32.62
2022-10-05T06:19:43.621Z,32.60
2022-10-05T06:22:46.064Z,32.54
2022-10-05T06:25:39.848Z,32.51
2022-10-05T06:28:31.832Z,32.47
2022-10-05T06:32:03.798Z,32.50
2022-10-05T06:35:23.403Z,32.37
2022-10-05T06:38:36.852Z,32.20
2022-10-05T06:42:02.829Z,32.13
2022-10-05T06:45:55.094Z,31.98
2022-10-05T06:49:18.649Z,31.88
2022-10-05T06:52:42.537Z,31.85
2022-10-05T06:56:22.872Z,31.85
2022-10-05T07:00:03.185Z,31.81
2022-10-05T07:03:00.056Z,31.72
2022-10-05T07:05:53.800Z,31.71
2022-10-05T07:09:10.616Z,31.70
2022-10-05T07:12:24.496Z,31.65
2022-10-05T07:15:23.747Z,31.60
2022-10-05T07:18:50.552Z,31.60
2022-10-05T07:22:24.613Z,31.57
2022-10-05T07:25:30.660Z,31.60
2022-10-05T07:28:26.969Z,31.58
2022-10-05T07:31:34.992Z,31.61
2022-10-05T07:34:27.182Z,31.57
2022-10-05T07:37:46.640Z,31.64
2022-10-05T07:40:58.429Z,31.70
2022-10-05T07:44:03.043Z,31.67
2022-10-05T07:47:12.992Z,31.75
2022-10-05T07:50:30.533Z,31.84
2022-10-05T07:54:10.335Z,31.87
2022-10-05T07:57:19.705Z,31.90
2022-10-05T08:00:22.129Z,31.93
2022-10-05T08:03:25.765Z,31.94
2022-10-05T08:06:41.997Z,32.05
2022-10-05T08:09:55.568Z,32.04
2022-10-05T08:13:10.074Z,32.02
2022-10-05T08:16:06.428Z,32.03
2022-10-05T08:19:02.043Z,32.05
2022-10-05T08:22:23.001Z,32.04
2022-10-05T08:25:31.166Z,32.12
2022-10-05T08:28:35.681Z,32.10
2022-10-05T08:31:42.987Z,32.06
2022-10-05T08:34:48.151Z,32.07
2022-10-05T08:37:42.128Z,32.07
2022-10-05T08:40:37.993Z,32.09
2022-10-05T08:43:56.061Z,32.06
2022-10-05T08:47:21.136Z,32.05
2022-10-05T08:50:41.920Z,32.07
2022-10-05T08:53:40.466Z,32.06
2022-10-05T08:56:57.087Z,32.08
2022-10-05T09:00:08.197Z,32.07
2022-10-05T09:03:18.142Z,32.10
2022-10-05T09:06:24.196Z,32.00
2022-10-05T09:09:50.615Z,32.03
2022-10-05T09:12:50.840Z,32.01
2022-10-05T09:16:18.080Z,32.01
2022-10-05T09:19:43.069Z,32.01
2022-10-05T09:22:59.167Z,31.95
2022-10-05T09:25:59.888Z,31.93
2022-10-05T09:29:08.193Z,31.91
2022-10-05T09:32:14.221Z,31.79
2022-10-05T09:35:10.456Z,31.86
2022-10-05T09:38:16.026Z,31.89
2022-10-05T09:41:32.750Z,31.85
2022-10-05T09:45:00.240Z,31.87
2022-10-05T09:48:21.234Z,31.82
2022-10-05T09:51:30.430Z,31.76
2022-10-05T09:54:33.063Z,31.73
2022-10-05T09:57:36.934Z,31.74
2022-10-05T10:00:50.095Z,31.73
2022-10-05T10:03:59.550Z,31.63
2022-10-05T10:06:52.689Z,31.64
2022-10-05T10:10:08.126Z,31.62
2022-10-05T10:13:31.946Z,31.62
2022-10-05T10:16:32.076Z,31.60
2022-10-05T10:19:33.334Z,31.59
2022-10-05T10:23:04.584Z,31.60
2022-10-05T10:26:36.628Z,31.56
2022-10-05T10:29:44.861Z,31.50
2022-10-05T10:32:35.290Z,31.52
2022-10-05T10:36:06.038Z,31.54
2022-10-05T10:39:14.787Z,31.49
2022-10-05T10:42:11.832Z,31.53
2022-10-05T10:45:26.694Z,31.49
2022-10-05T10:48:21.435Z,31.44
2022-10-05T10:51:33.096Z,31.48
2022-10-05T10:54:33.452Z,31.45
2022-10-05T10:57:48.190Z,31.46
2022-10-05T11:01:24.182Z,31.44
2022-10-05T11:04:55.093Z,31.41
2022-10-05T11:08:16.781Z,31.39
2022-10-05T11:11:11.684Z,31.33
2022-10-05T11:14:13.226Z,31.32
2022-10-05T11:17:30.465Z,31.34
2022-10-05T11:20:44.186Z,31.30
2022-10-05T11:24:10.025Z,31.33
2022-10-05T11:27:17.801Z,31.28
2022-10-05T11:30:36.295Z,31.28
2022-10-05T11:34:01.908Z,31.27
2022-10-05T11:37:21.986Z,31.22
2022-10-05T11:40:35.143Z,31.22
2022-10-05T11:43:34.082Z,31.18
2022-10-05T11:46:48.860Z,31.15
2022-10-05T11:50:07.546Z,31.20
2022-10-05T11:53:38.697Z,31.13
2022-10-05T11:56:55.731Z,31.12
2022-10-05T12:00:11.818Z,31.11
2022-10-05T12:03:38.203Z,30.95
2022-10-05T12:07:13.632Z,30.99
2022-10-05T12:10:27.400Z,31.02
2022-10-05T12:13:29.007Z,31.01
2022-10-05T12:16:39.722Z,30.98
2022-10-05T12:19:45.926Z,30.96
2022-10-05T12:22:51.987Z,30.92
2022-10-05T12:25:54.848Z,30.89
2022-10-05T12:28:51.187Z,30.88
2022-10-05T12:31:53.279Z,30.85
2022-10-05T12:35:01.425Z,30.85
2022-10-05T12:38:20.582Z,30.90
2022-10-05T12:41:30.338Z,30.83
2022-10-05T12:44:36.992Z,30.83
2022-10-05T12:47:41.407Z,30.85
2022-10-05T12:50:49.294Z,30.87
2022-10-05T12:54:19.691Z,30.86
2022-10-05T12:57:19.655Z,30.84
2022-10-05T13:00:23.115Z,30.87
2022-10-05T13:03:41.083Z,30.85
2022-10-05T13:06:44.069Z,30.76
2022-10-05T13:10:17.480Z,30.79
2022-10-05T13:13:24.604Z,30.74
2022-10-05T13:16:22.879Z,30.77
2022-10-05T13:19:26.148Z,30.79
2022-10-05T13:22:42.218Z,30.73
2022-10-05T13:25:45.496Z,30.71
2022-10-05T13:28:46.035Z,30.69
2022-10-05T13:31:46.860Z,30.68
2022-10-05T13:34:55.123Z,30.64
2022-10-05T13:38:29.762Z,30.71
2022-10-05T13:41:36.959Z,30.64
2022-10-05T13:44:49.097Z,30.63
2022-10-05T13:47:54.768Z,30.61
2022-10-05T13:51:05.334Z,30.61
2022-10-05T13:54:08.805Z,30.57
2022-10-05T13:57:22.305Z,30.59
2022-10-05T14:00:27.380Z,30.60
2022-10-05T14:03:34.322Z,30.56
2022-10-05T14:06:31.897Z,30.56
2022-10-05T14:09:27.986Z,30.46
2022-10-05T14:12:25.113Z,30.46
2022-10-05T14:15:24.572Z,30.47
2022-10-05T14:18:32.549Z,30.53
2022-10-05T14:21:28.991Z,30.47
2022-10-05T14:24:42.752Z,30.47
2022-10-05T14:27:37.974Z,30.42
2022-10-05T14:30:31.929Z,30.42
2022-10-05T14:33:32.295Z,30.45
2022-10-05T14:36:44.980Z,30.45
2022-10-05T14:39:36.526Z,30.36
2022-10-05T14:42:31.030Z,30.40
2022-10-05T14:45:33.110Z,30.36
2022-10-05T14:48:24.035Z,30.37
2022-10-05T14:51:33.001Z,30.30
2022-10-05T14:54:40.387Z,30.19
2022-10-05T14:57:40.211Z,30.17
2022-10-05T15:00:34.943Z,30.31
2022-10-05T15:03:37.450Z,30.36
2022-10-05T15:06:42.117Z,30.40
2022-10-05T15:09:55.766Z,30.40
2022-10-05T15:12:49.461Z,30.44
2022-10-05T15:16:02.735Z,30.41
2022-10-05T15:19:28.684Z,30.39
2022-10-05T15:22:26.258Z,30.39
2022-10-05T15:25:18.758Z,30.37
2022-10-05T15:28:17.507Z,30.35
2022-10-05T15:31:25.552Z,30.39
2022-10-05T15:34:28.983Z,30.37
2022-10-05T15:37:25.276Z,30.33
2022-10-05T15:40:29.457Z,30.36
2022-10-05T15:43:24.166Z,30.33
2022-10-05T15:46:23.009Z,30.34
2022-10-05T15:49:30.031Z,30.32
2022-10-05T15:52:39.982Z,30.35
2022-10-05T15:55:58.533Z,30.26
2022-10-05T15:59:17.523Z,30.29
2022-10-05T16:02:20.885Z,30.26
2022-10-05T16:05:21.079Z,30.26
2022-10-05T16:08:35.884Z,30.25
2022-10-05T16:11:53.098Z,30.25
2022-10-05T16:14:59.232Z,30.18
2022-10-05T16:18:03.087Z,30.19
2022-10-05T16:20:55.720Z,30.19
2022-10-05T16:24:17.924Z,30.16
2022-10-05T16:27:34.199Z,30.19
2022-10-05T16:30:25.695Z,30.17
2022-10-05T16:34:04.375Z,30.14
2022-10-05T16:37:19.290Z,30.18
2022-10-05T16:40:48.088Z,30.16
2022-10-05T16:44:18.719Z,30.10
2022-10-05T16:47:45.274Z,30.01
2022-10-05T16:51:14.244Z,30.04
2022-10-05T16:54:19.174Z,29.98
2022-10-05T16:57:18.186Z,29.91
2022-10-05T17:00:27.440Z,29.94
2022-10-05T17:03:41.127Z,29.95
2022-10-05T17:06:48.085Z,29.90
2022-10-05T17:09:47.844Z,29.88
2022-10-05T17:12:58.340Z,29.85
2022-10-05T17:16:02.278Z,29.85
2022-10-05T17:19:10.919Z,29.81
2022-10-05T17:22:02.978Z,29.76
2022-10-05T17:25:14.010Z,29.75
2022-10-05T17:28:26.725Z,29.78
2022-10-05T17:31:21.865Z,29.73
2022-10-05T17:34:18.883Z,29.72
2022-10-05T17:37:33.029Z,29.75
2022-10-05T17:40:40.906Z,29.72
2022-10-05T17:43:34.552Z,29.67
2022-10-05T17:46:46.584Z,29.68
2022-10-05T17:50:18.784Z,29.65
2022-10-05T17:54:04.570Z,29.72
2022-10-05T17:56:58.071Z,29.63
2022-10-05T17:59:57.787Z,29.65
2022-10-05T18:02:48.811Z,29.61
2022-10-05T18:05:39.236Z,29.60
2022-10-05T18:08:38.720Z,29.59
2022-10-05T18:11:37.640Z,29.57
2022-10-05T18:14:27.761Z,29.56
2022-10-05T18:17:39.182Z,29.58
2022-10-05T18:20:32.384Z,29.53
2022-10-05T18:23:26.384Z,29.54
2022-10-05T18:26:33.666Z,29.55
2022-10-05T18:30:05.890Z,29.52
2022-10-05T18:33:13.212Z,29.54
2022-10-05T18:36:14.511Z,29.51
2022-10-05T18:39:07.699Z,29.45
2022-10-05T18:42:26.388Z,29.46
2022-10-05T18:45:39.076Z,29.44
2022-10-05T18:48:44.223Z,29.46
2022-10-05T18:51:52.157Z,29.43
2022-10-05T18:55:07.777Z,29.45
2022-10-05T18:58:24.445Z,29.45
2022-10-05T19:01:33.403Z,29.42
2022-10-05T19:04:39.327Z,29.41
2022-10-05T19:07:50.340Z,29.38
2022-10-05T19:10:47.563Z,29.39
2022-10-05T19:13:56.925Z,29.33
2022-10-05T19:16:56.366Z,29.35
2022-10-05T19:20:18.415Z,29.33
2022-10-05T19:23:37.550Z,29.39
2022-10-05T19:26:44.843Z,29.32
2022-10-05T19:29:48.795Z,29.32
2022-10-05T19:32:43.449Z,29.30
2022-10-05T19:36:10.856Z,29.31
2022-10-05T19:39:23.282Z,29.27
2022-10-05T19:42:21.456Z,29.27
2022-10-05T19:45:24.976Z,29.25
2022-10-05T19:48:21.588Z,29.25
2022-10-05T19:51:30.303Z,29.28
2022-10-05T19:54:30.041Z,29.23
2022-10-05T19:57:20.034Z,29.21
2022-10-05T20:00:28.214Z,29.21
2022-10-05T20:03:30.428Z,29.22
2022-10-05T20:06:22.706Z,29.20
2022-10-05T20:09:23.223Z,29.22
2022-10-05T20:12:13.147Z,29.17
2022-10-05T20:15:28.504Z,29.19
2022-10-05T20:19:12.541Z,29.21
2022-10-05T20:22:47.108Z,29.18
2022-10-05T20:25:41.170Z,29.13
2022-10-05T20:28:34.568Z,29.13
2022-10-05T20:31:24.023Z,29.12
2022-10-05T20:34:14.417Z,29.12
2022-10-05T20:37:04.956Z,29.10
2022-10-05T20:39:54.780Z,29.10
2022-10-05T20:42:47.846Z,29.08
2022-10-05T20:45:44.529Z,29.06
2022-10-05T20:48:35.507Z,29.05
2022-10-05T20:51:29.826Z,29.07
2022-10-05T20:54:19.934Z,29.07
2022-10-05T20:57:17.419Z,29.03
2022-10-05T21:00:08.026Z,29.04
2022-10-05T21:02:58.273Z,29.06
2022-10-05T21:05:48.435Z,29.04
2022-10-05T21:08:39.238Z,28.99
2022-10-05T21:11:29.558Z,29.03
2022-10-05T21:14:20.633Z,29.01
2022-10-05T21:17:10.584Z,29.02
2022-10-05T21:20:00.848Z,28.98
2022-10-05T21:22:50.823Z,28.96
2022-10-05T21:25:40.737Z,28.94
2022-10-05T21:28:33.559Z,28.93
2022-10-05T21:31:23.010Z,28.91
2022-10-05T21:34:13.261Z,28.88
2022-10-05T21:37:03.605Z,28.89
2022-10-05T21:39:53.444Z,28.91
2022-10-05T21:42:43.406Z,28.88
2022-10-05T21:45:33.467Z,28.86
2022-10-05T21:48:23.456Z,28.88
2022-10-05T21:51:17.421Z,28.89
2022-10-05T21:54:26.999Z,28.93
2022-10-05T21:57:16.475Z,28.89
2022-10-05T22:00:09.285Z,28.88
2022-10-05T22:03:00.099Z,28.86
2022-10-05T22:05:49.926Z,28.83
2022-10-05T22:08:40.166Z,28.85
2022-10-05T22:11:30.351Z,28.83
2022-10-05T22:14:19.803Z,28.85
2022-10-05T22:17:28.889Z,28.88
2022-10-05T22:20:21.255Z,28.82
2022-10-05T22:23:11.148Z,28.81
2022-10-05T22:26:01.954Z,28.81
2022-10-05T22:28:56.045Z,28.77
2022-10-05T22:31:49.546Z,28.78
2022-10-05T22:34:39.061Z,28.76
2022-10-05T22:37:28.517Z,28.77
2022-10-05T22:40:17.955Z,28.76
2022-10-05T22:43:08.554Z,28.78
2022-10-05T22:45:58.466Z,28.79
2022-10-05T22:48:48.138Z,28.80
2022-10-05T22:51:40.841Z,28.80
2022-10-05T22:54:32.510Z,28.78
2022-10-05T22:57:24.464Z,28.78
2022-10-05T23:00:18.286Z,28.77
2022-10-05T23:03:08.793Z,28.80
2022-10-05T23:06:06.165Z,28.85
2022-10-05T23:08:56.621Z,28.87
2022-10-05T23:11:48.887Z,28.93
2022-10-05T23:14:38.179Z,28.92
2022-10-05T23:17:27.979Z,28.92
2022-10-05T23:20:17.667Z,28.91
2022-10-05T23:23:07.179Z,28.94
2022-10-05T23:26:03.914Z,29.07
2022-10-05T23:28:54.034Z,29.08
2022-10-05T23:31:45.357Z,29.05
2022-10-05T23:34:37.331Z,29.14
2022-10-05T23:37:29.300Z,29.07
2022-10-05T23:40:19.395Z,29.14
2022-10-05T23:43:08.876Z,29.16
2022-10-05T23:45:59.341Z,29.17
2022-10-05T23:48:51.187Z,29.22
2022-10-05T23:51:46.859Z,29.26
2022-10-05T23:54:37.657Z,29.28
2022-10-05T23:57:27.663Z,29.32
